KMWA/MWA METAR and TAF weather

Enter ICAO airport designator
Station Type Date Time Source
KMWA METAR 2022/12/04 05:15 UTC NOAA

KMWA 040515Z AUTO 00000KT 10SM CLR M05/M07 A3048 RMK AO2 T10491071


Station Type Date Time Source
KMWA Decoded METAR 2022/12/04 05:15 UTC NOAA

Marion, Williamson County Regional Airport, IL, United States (KMWA) 37-45-01N 089-00-04W
Dec 04, 2022 - 12:15 AM EST / 2022.12.04 0515 UTC
Wind: Calm:0
Visibility: 10 mile(s):0
Sky conditions: clear
Temperature: 23.2 F (-4.9 C)
Dew Point: 19.2 F (-7.1 C)
Relative Humidity: 84%
Pressure (altimeter): 30.48 in. Hg (1032 hPa)
ob: KMWA 040515Z AUTO 00000KT 10SM CLR M05/M07 A3048 RMK AO2 T10491071
cycle: 5

Station Type Date Time Source
KMWA TAF UTC NOAA

Error!

Example: see airport list